Barnhart, Texas
Current Conditions -  °F | °C
As of 1:55 PM on Saturday 25 Oct 2014 (Local Time) from KOZA Reporting Station
Clear Clear  
Wind Chill: 82°   Ceiling: Unl
Heat Index: 82°   Visibility: 10mi
Dew Point: 52°   Wind: 12mph
Humidity: 35%   Direction: 190°S
Pressure: 30.19"   Gusts: 17mph
Location:  31.13°N, 101.17°W
Report Text: KOZA 251855Z AUTO 19010G15KT 10SM CLR 28/11 A3019 RMK AO2
Loading
Personal Weather Stations






























Interactive Weather Map
Tropical Storm Tracking
New forecast layout! Learn more

10-Day Weather Forecast

Advertisements
Track Severe Weather on mobile